• METAR

    LHBP Budapest Liszt Ferenc repülőtér METAR

    LHBP 180800Z 34004KT 3200 -RADZ BR SCT005 OVC024 05/05 Q1019 BECMG 5000 BR

    QNH légnyomás:1019hpa
    Hőmérséklet/temperature: 5°C
    Harmatpont/Dew Point Temp: 5°C

    LHDC Debreceni repülőtér METAR

    LHDC 180745Z 01002KT 9999 -RA OVC020 06/04 Q1019 NOSIG

    QNH légnyomás:1019hpa
    Hőmérskélet/temperature: 6°C
    Harmatpont/Dew Point Temp: 4°C

    LHPR Győr-pér repülőtér METAR

    LHPR 180745Z 30007KT 7000 NSC 05/04 Q1020 RMK WHT

    QNH légnyomás:1020hpa
    Hőmérskélet/temperature: 5°C
    Harmatpont/Dew Point Temp: 4°C

    lhsm Sármellék repülőtér METAR

    LHSM 180745Z 33006KT 9999 -RA BKN013 OVC020 05/04 Q1021 BECMG NSW

    QNH légnyomás:1021hpa
    Hőmérskélet/temperature: 5°C
    Harmatpont/Dew Point Temp: 4°C

    lhpp Pécs-pogány repülőtér METAR

    LHPP 180745Z 30002KT 3000 -DZ OVC010 04/03 Q1020

    QNH légnyomás:1020hpa
    Hőmérskélet/temperature: 4°C
    Harmatpont/Dew Point Temp: 3°C

    LHKE Kecskemét repülőtér METAR

    LHKE 180745Z 30006KT 1800 -DZRA BR OVC006 05/04 Q1019 NOSIG RMK YLO

    QNH légnyomás:1019hpa
    Hőmérskélet/temperature: 5°C
    Harmatpont/Dew Point Temp: 4°C

    LHSN Szolnok repülőtér METAR

    LHSN 180745Z 29004KT 1500 -DZRA BR BKN003 OVC020 05/05 Q1019 NOSIG RMK AMB

    QNH légnyomás:1019hpa
    Hőmérskélet/temperature: 5°C
    Harmatpont/Dew Point Temp: 5°C

    LHUD szeged repülőtér METAR

    LHUD 180745Z 29004KT 4500 BR BKN006 OVC023 05/04 Q1020

    QNH légnyomás:1020hpa
    Hőmérskélet/temperature: 5°C
    Harmatpont/Dew Point Temp: 4°C

  • TÉRKÉPEK

    Felhőkép

    Széltérkép

    Hőtérkép

    radarkép

    map

    map

  • Műholdképek

    Magyarország műholdkép

    Europa műholdkép

    Europa szinoptikus térkép

  • ELTE ELŐREJELZÉS (2 NAP LHBP)

    2 napos légnyomás előrejelzés Budapest LHBP

    2 napos szél előrejelzés Budapest LHBP

    2 napos termik trigger előrejelzés Budapest LHBP

    2 napos felhőzet előrejelzés Budapest LHBP

    2 napos thermal index profile előrejelzés Budapest LHBP

    2 napos átlag emelés előrejelzés Budapest LHBP

    2 napos felhő alap előrejelzés Budapest LHBP

    2 napos hőmérséklet advekció előrejelzés Budapest LHBP

  • VILLÁMRADAR

  • ELŐREJELZÉS

  • WINDFINDER ELŐREJELZÉS

  • RIASZTÁS - VÉSZJELZÉS

Repülésmeteorológia, aktuális időjárási helyzet és előrejelzés

Repülésmeteorológia, várható időjárás jelentések, előrejelzések és riasztások. METAR, TAF adatok, aktuális időjárás helyzetek és térképek.

A meteorológia kialakulásában és fejlődésében kiemelt szerep jutott a repülésnek, illetve a repülés technikai fejlődésének. A repülésmeteorológia elsődlegesen a repülés biztonságát, másodlagosan a repülés gazdaságosságát hivatott szolgálni. Eleinte a katonai repülőgépeknek, később a polgári repülésnek, ma már a sportrepülő pilótáknak, és a mezőgazdasági pilótáknak is egyaránt szükségük van a naprakész meteorológiai információkra.

Repülésmeteorológia oldalunkon összegyűjtöttük a legnépszerűbb és legjobb időjárás oldalak hivatkozásait, hogy repülés előtt vagy akár közben minden fontos forrást egyszerűen és gyorsan megtalálj. Magyarország várható időjárása, légállapoti diagramok, termik előrejelzés, METAR adatok, vészjelzések és figyelmeztetések. A képernyő szélén közvetlenül pedig pozíciód aktuális időjárási paramétereit is megtalálod.

JOGI NYILATKOZAT

Az oldal használatával a látogató elfogadja az alábbi felhasználási feltételeket:

Az oldalon feltüntetett repülésmeteorológia információkat mindenki csak saját felelősségre használhatja. A feltüntetett külső forrásokból származó információk pontosságáért és tartalmáért, valamint az esetlegesen ebből adódó bármilyen káresemény kapcsán a FLYTIME.HU nem vállal felelősséget!